createdAt,value
2018-06-11T00:02:23.919Z,99.83
2018-06-11T00:04:52.485Z,99.97
2018-06-11T00:07:21.034Z,99.54
2018-06-11T00:09:49.646Z,99.60
2018-06-11T00:12:18.191Z,98.95
2018-06-11T00:14:46.791Z,99.95
2018-06-11T00:17:15.341Z,100.00
2018-06-11T00:19:50.468Z,100.00
2018-06-11T00:22:19.018Z,100.00
2018-06-11T00:24:47.598Z,100.00
2018-06-11T00:27:16.155Z,100.00
2018-06-11T00:29:45.292Z,100.00
2018-06-11T00:32:13.837Z,100.00
2018-06-11T00:34:42.421Z,100.00
2018-06-11T00:37:10.969Z,100.00
2018-06-11T00:39:39.557Z,100.00
2018-06-11T00:42:08.172Z,100.00
2018-06-11T00:44:36.748Z,100.00
2018-06-11T00:47:05.325Z,100.00
2018-06-11T00:49:33.955Z,100.00
2018-06-11T00:52:02.879Z,100.00
2018-06-11T00:54:31.478Z,100.00
2018-06-11T00:57:00.023Z,100.00
2018-06-11T00:59:28.605Z,100.00
2018-06-11T01:01:57.174Z,99.67
2018-06-11T01:04:25.722Z,100.00
2018-06-11T01:06:54.310Z,100.00
2018-06-11T01:09:22.865Z,100.00
2018-06-11T01:11:51.449Z,100.00
2018-06-11T01:14:20.011Z,100.00
2018-06-11T01:16:48.594Z,100.00
2018-06-11T01:19:17.168Z,100.00
2018-06-11T01:21:45.755Z,100.00
2018-06-11T01:24:14.305Z,100.00
2018-06-11T01:26:42.897Z,100.00
2018-06-11T01:29:11.443Z,100.00
2018-06-11T01:31:40.029Z,100.00
2018-06-11T01:34:08.596Z,100.00
2018-06-11T01:36:37.197Z,100.00
2018-06-11T01:39:07.578Z,100.00
2018-06-11T01:41:36.297Z,100.00
2018-06-11T01:44:04.854Z,100.00
2018-06-11T01:46:33.438Z,100.00
2018-06-11T01:49:01.991Z,100.00
2018-06-11T01:51:30.578Z,100.00
2018-06-11T01:53:59.123Z,100.00
2018-06-11T01:56:27.700Z,100.00
2018-06-11T01:58:56.285Z,100.00
2018-06-11T02:01:24.873Z,100.00
2018-06-11T02:03:53.410Z,100.00
2018-06-11T02:06:21.984Z,100.00
2018-06-11T02:08:50.553Z,100.00
2018-06-11T02:11:19.132Z,100.00
2018-06-11T02:13:47.708Z,100.00
2018-06-11T02:16:16.290Z,100.00
2018-06-11T02:18:45.668Z,100.00
2018-06-11T02:21:14.247Z,100.00
2018-06-11T02:23:42.788Z,100.00
2018-06-11T02:26:11.374Z,100.00
2018-06-11T02:28:39.929Z,100.00
2018-06-11T02:31:08.497Z,100.00
2018-06-11T02:33:37.036Z,100.00
2018-06-11T02:36:05.674Z,100.00
2018-06-11T02:38:34.240Z,100.00
2018-06-11T02:41:02.901Z,100.00
2018-06-11T02:43:31.443Z,100.00
2018-06-11T02:46:00.042Z,100.00
2018-06-11T02:48:28.582Z,100.00
2018-06-11T02:50:57.192Z,100.00
2018-06-11T02:53:25.777Z,100.00
2018-06-11T02:55:54.335Z,100.00
2018-06-11T02:58:23.236Z,100.00
2018-06-11T03:00:51.805Z,100.00
2018-06-11T03:03:20.396Z,100.00
2018-06-11T03:05:48.986Z,100.00
2018-06-11T03:08:17.588Z,100.00
2018-06-11T03:10:46.167Z,100.00
2018-06-11T03:13:15.852Z,100.00
2018-06-11T03:15:44.418Z,100.00
2018-06-11T03:18:13.019Z,100.00
2018-06-11T03:20:41.573Z,100.00
2018-06-11T03:23:10.209Z,100.00
2018-06-11T03:25:38.762Z,100.00
2018-06-11T03:28:07.373Z,100.00
2018-06-11T03:30:35.950Z,100.00
2018-06-11T03:33:04.553Z,100.00
2018-06-11T03:35:33.129Z,100.00
2018-06-11T03:38:01.713Z,100.00
2018-06-11T03:40:30.271Z,100.00
2018-06-11T03:42:58.877Z,100.00
2018-06-11T03:45:27.433Z,100.00
2018-06-11T03:47:56.016Z,100.00
2018-06-11T03:50:24.577Z,100.00
2018-06-11T03:52:53.190Z,100.00
2018-06-11T03:55:21.765Z,100.00
2018-06-11T03:57:50.369Z,100.00
2018-06-11T04:00:18.964Z,100.00
2018-06-11T04:02:47.545Z,100.00
2018-06-11T04:05:16.085Z,100.00
2018-06-11T04:07:44.722Z,100.00
2018-06-11T04:10:13.285Z,100.00
2018-06-11T04:12:41.873Z,100.00
2018-06-11T04:15:10.429Z,100.00
2018-06-11T04:17:39.034Z,100.00
2018-06-11T04:20:07.607Z,100.00
2018-06-11T04:22:36.202Z,100.00
2018-06-11T04:25:04.753Z,100.00
2018-06-11T04:27:33.337Z,100.00
2018-06-11T04:30:01.903Z,100.00
2018-06-11T04:32:30.477Z,100.00
2018-06-11T04:34:59.020Z,100.00
2018-06-11T04:37:27.617Z,100.00
2018-06-11T04:39:56.216Z,100.00
2018-06-11T04:42:24.769Z,100.00
2018-06-11T04:44:53.349Z,100.00
2018-06-11T04:47:21.913Z,100.00
2018-06-11T04:49:53.795Z,100.00
2018-06-11T04:52:22.430Z,100.00
2018-06-11T04:54:51.024Z,100.00
2018-06-11T04:57:19.589Z,100.00
2018-06-11T04:59:48.194Z,100.00
2018-06-11T05:02:17.047Z,100.00
2018-06-11T05:04:49.706Z,100.00
2018-06-11T05:07:18.465Z,100.00
2018-06-11T05:09:47.122Z,100.00
2018-06-11T05:12:16.252Z,100.00
2018-06-11T05:14:44.857Z,100.00
2018-06-11T05:17:13.407Z,100.00
2018-06-11T05:19:43.513Z,100.00
2018-06-11T05:22:12.056Z,100.00
2018-06-11T05:24:40.626Z,100.00
2018-06-11T05:27:09.169Z,100.00
2018-06-11T05:29:37.730Z,100.00
2018-06-11T05:32:06.497Z,100.00
2018-06-11T05:34:35.181Z,100.00
2018-06-11T05:37:04.022Z,100.00
2018-06-11T05:39:32.592Z,100.00
2018-06-11T05:42:01.161Z,99.06
2018-06-11T05:44:29.720Z,98.66
2018-06-11T05:47:01.125Z,99.93
2018-06-11T05:49:29.693Z,98.59
2018-06-11T05:51:58.249Z,99.63
2018-06-11T05:54:26.810Z,99.47
2018-06-11T05:56:55.357Z,99.49
2018-06-11T05:59:23.952Z,99.50
2018-06-11T06:01:52.623Z,98.33
2018-06-11T06:04:21.195Z,99.07
2018-06-11T06:06:49.739Z,97.64
2018-06-11T06:09:18.335Z,98.29
2018-06-11T06:11:46.872Z,97.64
2018-06-11T06:14:17.252Z,97.59
2018-06-11T06:16:46.783Z,96.74
2018-06-11T06:19:16.814Z,96.21
2018-06-11T06:21:46.551Z,96.20
2018-06-11T06:24:15.131Z,95.65
2018-06-11T06:26:44.588Z,95.04
2018-06-11T06:29:13.133Z,95.42
2018-06-11T06:31:41.660Z,94.04
2018-06-11T06:34:10.285Z,93.79
2018-06-11T06:36:38.795Z,93.55
2018-06-11T06:39:09.142Z,93.70
2018-06-11T06:41:37.922Z,93.88
2018-06-11T06:44:06.510Z,92.11
2018-06-11T06:46:35.279Z,92.61
2018-06-11T06:49:03.855Z,92.44
2018-06-11T06:51:32.409Z,91.11
2018-06-11T06:54:00.954Z,92.27
2018-06-11T06:56:29.532Z,92.41
2018-06-11T06:58:58.112Z,92.52
2018-06-11T07:01:26.696Z,91.40
2018-06-11T07:03:55.255Z,90.60
2018-06-11T07:06:23.843Z,91.02
2018-06-11T07:08:52.388Z,90.20
2018-06-11T07:11:20.965Z,91.94
2018-06-11T07:13:49.518Z,90.88
2018-06-11T07:16:18.121Z,90.80
2018-06-11T07:18:46.742Z,91.15
2018-06-11T07:21:15.325Z,91.97
2018-06-11T07:23:43.876Z,92.00
2018-06-11T07:26:12.486Z,92.07
2018-06-11T07:28:41.060Z,92.16
2018-06-11T07:31:09.653Z,90.83
2018-06-11T07:33:38.233Z,91.62
2018-06-11T07:36:06.823Z,91.18
2018-06-11T07:38:35.653Z,91.33
2018-06-11T07:41:04.311Z,92.67
2018-06-11T07:43:32.827Z,93.89
2018-06-11T07:46:01.429Z,93.63
2018-06-11T07:48:30.030Z,92.39
2018-06-11T07:50:58.617Z,91.81
2018-06-11T07:53:27.182Z,93.15
2018-06-11T07:55:55.781Z,92.15
2018-06-11T07:58:24.345Z,91.38
2018-06-11T08:00:52.923Z,87.25
2018-06-11T08:03:21.484Z,88.62
2018-06-11T08:05:50.074Z,87.42
2018-06-11T08:08:18.623Z,88.26
2018-06-11T08:10:47.190Z,87.33
2018-06-11T08:13:16.809Z,88.06
2018-06-11T08:15:45.386Z,87.64
2018-06-11T08:18:13.936Z,85.89
2018-06-11T08:20:42.540Z,86.39
2018-06-11T08:23:11.094Z,83.39
2018-06-11T08:25:39.670Z,83.91
2018-06-11T08:28:08.229Z,83.28
2018-06-11T08:30:36.796Z,81.30
2018-06-11T08:33:05.409Z,80.28
2018-06-11T08:35:38.324Z,81.05
2018-06-11T08:38:07.129Z,79.51
2018-06-11T08:40:35.682Z,79.48
2018-06-11T08:43:04.230Z,79.64
2018-06-11T08:45:32.789Z,79.60
2018-06-11T08:48:01.323Z,81.86
2018-06-11T08:50:29.905Z,78.46
2018-06-11T08:52:58.466Z,78.97
2018-06-11T08:55:26.998Z,78.70
2018-06-11T08:57:55.588Z,75.51
2018-06-11T09:00:24.230Z,78.07
2018-06-11T09:02:52.794Z,75.55
2018-06-11T09:05:21.329Z,75.49
2018-06-11T09:07:49.893Z,74.70
2018-06-11T09:10:18.436Z,74.38
2018-06-11T09:12:47.946Z,77.18
2018-06-11T09:15:16.473Z,75.69
2018-06-11T09:17:45.033Z,76.94
2018-06-11T09:20:13.580Z,75.69
2018-06-11T09:22:42.172Z,74.06
2018-06-11T09:25:10.782Z,74.66
2018-06-11T09:27:39.373Z,72.36
2018-06-11T09:30:07.921Z,72.61
2018-06-11T09:32:36.485Z,74.77
2018-06-11T09:35:05.029Z,71.65
2018-06-11T09:37:33.619Z,72.94
2018-06-11T09:40:02.158Z,73.02
2018-06-11T09:42:30.729Z,71.59
2018-06-11T09:44:59.280Z,72.99
2018-06-11T09:47:27.836Z,73.56
2018-06-11T09:49:56.381Z,72.80
2018-06-11T09:52:24.941Z,73.93
2018-06-11T09:54:53.468Z,74.99
2018-06-11T09:57:22.025Z,74.34
2018-06-11T09:59:50.601Z,71.86
2018-06-11T10:02:19.188Z,72.57
2018-06-11T10:04:48.033Z,75.77
2018-06-11T10:07:16.629Z,74.18
2018-06-11T10:09:45.173Z,74.46
2018-06-11T10:12:13.794Z,73.78
2018-06-11T10:14:42.357Z,73.17
2018-06-11T10:17:10.959Z,72.93
2018-06-11T10:19:39.512Z,72.63
2018-06-11T10:22:08.164Z,74.38
2018-06-11T10:24:36.732Z,71.49
2018-06-11T10:27:05.328Z,72.64
2018-06-11T10:29:33.852Z,71.38
2018-06-11T10:32:02.409Z,71.15
2018-06-11T10:34:30.936Z,71.04
2018-06-11T10:36:59.526Z,69.79
2018-06-11T10:39:28.050Z,69.00
2018-06-11T10:41:56.621Z,69.89
2018-06-11T10:44:25.181Z,70.76
2018-06-11T10:46:53.717Z,71.19
2018-06-11T10:49:22.269Z,69.14
2018-06-11T10:51:50.801Z,72.43
2018-06-11T10:54:19.369Z,73.15
2018-06-11T10:56:48.855Z,72.87
2018-06-11T10:59:17.479Z,73.12
2018-06-11T11:01:46.024Z,72.10
2018-06-11T11:04:14.651Z,75.23
2018-06-11T11:06:43.223Z,79.86
2018-06-11T11:09:11.826Z,79.78
2018-06-11T11:11:40.437Z,80.96
2018-06-11T11:14:09.033Z,80.48
2018-06-11T11:16:37.572Z,81.47
2018-06-11T11:19:06.329Z,83.02
2018-06-11T11:21:34.899Z,83.89
2018-06-11T11:24:03.494Z,84.33
2018-06-11T11:26:32.370Z,83.55
2018-06-11T11:29:00.958Z,82.63
2018-06-11T11:31:30.401Z,79.95
2018-06-11T11:33:58.986Z,89.50
2018-06-11T11:36:29.521Z,96.35
2018-06-11T11:38:58.136Z,100.00
2018-06-11T11:41:26.677Z,100.00
2018-06-11T11:43:55.253Z,100.00
2018-06-11T11:46:23.796Z,100.00
2018-06-11T11:48:52.388Z,100.00
2018-06-11T11:51:20.942Z,100.00
2018-06-11T11:53:49.526Z,100.00
2018-06-11T11:56:19.115Z,100.00
2018-06-11T11:58:47.737Z,100.00
2018-06-11T12:01:16.277Z,100.00
2018-06-11T12:03:44.860Z,100.00
2018-06-11T12:06:13.424Z,100.00
2018-06-11T12:08:42.041Z,100.00
2018-06-11T12:11:10.601Z,100.00
2018-06-11T12:13:40.614Z,100.00
2018-06-11T12:16:12.235Z,100.00
2018-06-11T12:18:42.623Z,100.00
2018-06-11T12:21:13.560Z,100.00
2018-06-11T12:23:42.232Z,100.00
2018-06-11T12:26:15.027Z,100.00
2018-06-11T12:28:46.297Z,100.00
2018-06-11T12:31:14.972Z,100.00
2018-06-11T12:33:43.963Z,100.00
2018-06-11T12:36:12.533Z,99.26
2018-06-11T12:38:45.302Z,100.00
2018-06-11T12:41:19.033Z,100.00
2018-06-11T12:43:51.065Z,100.00
2018-06-11T12:46:30.802Z,99.82
2018-06-11T12:49:15.012Z,100.00
2018-06-11T12:51:55.899Z,99.99
2018-06-11T12:54:38.613Z,100.00
2018-06-11T12:57:19.714Z,100.00
2018-06-11T12:59:59.891Z,99.30
2018-06-11T13:02:40.924Z,99.45
2018-06-11T13:05:19.660Z,98.96
2018-06-11T13:07:59.590Z,98.75
2018-06-11T13:10:37.065Z,99.13
2018-06-11T13:13:19.049Z,100.00
2018-06-11T13:15:55.561Z,100.00
2018-06-11T13:18:34.211Z,100.00
2018-06-11T13:21:12.065Z,100.00
2018-06-11T13:23:50.284Z,100.00
2018-06-11T13:26:31.791Z,100.00
2018-06-11T13:29:14.321Z,100.00
2018-06-11T13:31:52.521Z,100.00
2018-06-11T13:34:32.027Z,100.00
2018-06-11T13:37:10.526Z,100.00
2018-06-11T13:39:54.857Z,100.00
2018-06-11T13:42:38.968Z,100.00
2018-06-11T13:45:15.389Z,100.00
2018-06-11T13:47:43.957Z,100.00
2018-06-11T13:50:17.242Z,100.00
2018-06-11T13:52:45.800Z,100.00
2018-06-11T13:55:14.382Z,100.00
2018-06-11T13:57:42.984Z,100.00
2018-06-11T14:00:11.607Z,100.00
2018-06-11T14:02:40.224Z,100.00
2018-06-11T14:05:08.808Z,100.00
2018-06-11T14:07:37.372Z,100.00
2018-06-11T14:10:05.961Z,100.00
2018-06-11T14:12:34.497Z,100.00
2018-06-11T14:15:03.115Z,100.00
2018-06-11T14:17:31.673Z,100.00
2018-06-11T14:20:00.265Z,100.00
2018-06-11T14:22:28.881Z,100.00
2018-06-11T14:24:57.493Z,100.00
2018-06-11T14:27:26.040Z,100.00
2018-06-11T14:29:54.643Z,100.00
2018-06-11T14:32:23.256Z,100.00
2018-06-11T14:35:04.330Z,100.00
2018-06-11T14:40:34.274Z,100.00
2018-06-11T14:43:22.828Z,100.00
2018-06-11T14:46:00.488Z,100.00
2018-06-11T14:48:44.625Z,100.00
2018-06-11T14:51:30.439Z,100.00
2018-06-11T14:54:19.717Z,100.00
2018-06-11T14:57:04.452Z,100.00
2018-06-11T14:59:49.955Z,100.00
2018-06-11T15:02:23.316Z,100.00
2018-06-11T15:04:58.473Z,100.00
2018-06-11T15:07:27.713Z,100.00
2018-06-11T15:09:56.242Z,100.00
2018-06-11T15:12:24.849Z,100.00
2018-06-11T15:14:53.378Z,100.00
2018-06-11T15:17:21.942Z,100.00
2018-06-11T15:20:07.361Z,100.00
2018-06-11T15:22:54.119Z,100.00
2018-06-11T15:25:23.681Z,100.00
2018-06-11T15:27:59.088Z,100.00
2018-06-11T15:30:28.693Z,100.00
2018-06-11T15:32:59.821Z,100.00
2018-06-11T15:35:32.008Z,100.00
2018-06-11T15:38:00.709Z,100.00
2018-06-11T15:40:29.246Z,100.00
2018-06-11T15:43:04.065Z,100.00
2018-06-11T15:45:32.680Z,100.00
2018-06-11T15:48:01.269Z,100.00
2018-06-11T15:50:29.833Z,100.00
2018-06-11T15:52:58.422Z,100.00
2018-06-11T15:55:32.244Z,100.00
2018-06-11T15:58:00.836Z,100.00
2018-06-11T16:00:29.407Z,100.00
2018-06-11T16:02:58.175Z,100.00
2018-06-11T16:05:27.058Z,100.00
2018-06-11T16:07:55.672Z,100.00
2018-06-11T16:10:24.247Z,100.00
2018-06-11T16:12:52.813Z,100.00
2018-06-11T16:15:22.045Z,100.00
2018-06-11T16:17:50.617Z,100.00
2018-06-11T16:20:19.162Z,100.00
2018-06-11T16:22:47.729Z,100.00
2018-06-11T16:25:16.262Z,100.00
2018-06-11T16:27:44.879Z,100.00
2018-06-11T16:30:13.407Z,100.00
2018-06-11T16:32:43.914Z,100.00
2018-06-11T16:35:12.467Z,100.00
2018-06-11T16:37:41.027Z,100.00
2018-06-11T16:40:09.568Z,100.00
2018-06-11T16:42:38.127Z,100.00
2018-06-11T16:45:07.047Z,100.00
2018-06-11T16:47:35.617Z,100.00
2018-06-11T16:50:04.233Z,100.00
2018-06-11T16:52:32.757Z,100.00
2018-06-11T16:55:01.356Z,100.00
2018-06-11T16:57:29.909Z,100.00
2018-06-11T16:59:58.530Z,100.00
2018-06-11T17:02:27.085Z,100.00
2018-06-11T17:04:55.658Z,100.00
2018-06-11T17:07:24.200Z,100.00
2018-06-11T17:09:52.817Z,100.00
2018-06-11T17:12:27.375Z,100.00
2018-06-11T17:14:57.469Z,100.00
2018-06-11T17:17:26.076Z,100.00
2018-06-11T17:20:00.055Z,100.00
2018-06-11T17:22:28.635Z,100.00
2018-06-11T17:24:57.305Z,100.00
2018-06-11T17:27:25.970Z,100.00
2018-06-11T17:29:54.585Z,100.00
2018-06-11T17:32:23.145Z,100.00
2018-06-11T17:34:52.331Z,100.00
2018-06-11T17:37:20.892Z,100.00
2018-06-11T17:39:49.514Z,100.00
2018-06-11T17:42:18.062Z,100.00
2018-06-11T17:44:49.086Z,100.00
2018-06-11T17:47:17.636Z,100.00
2018-06-11T17:49:46.549Z,100.00
2018-06-11T17:52:21.997Z,100.00
2018-06-11T17:54:58.135Z,100.00
2018-06-11T17:57:28.161Z,100.00
2018-06-11T18:00:05.595Z,100.00
2018-06-11T18:02:39.063Z,100.00
2018-06-11T18:05:11.825Z,100.00
2018-06-11T18:07:40.585Z,100.00
2018-06-11T18:10:11.371Z,100.00
2018-06-11T18:12:40.017Z,100.00
2018-06-11T18:15:08.590Z,100.00
2018-06-11T18:17:38.758Z,100.00
2018-06-11T18:20:08.495Z,100.00
2018-06-11T18:22:37.121Z,100.00
2018-06-11T18:25:05.716Z,100.00
2018-06-11T18:27:42.284Z,100.00
2018-06-11T18:30:12.179Z,100.00
2018-06-11T18:32:41.073Z,100.00
2018-06-11T18:35:09.719Z,100.00
2018-06-11T18:37:38.240Z,100.00
2018-06-11T18:40:09.273Z,100.00
2018-06-11T18:42:39.035Z,100.00
2018-06-11T18:45:08.336Z,100.00
2018-06-11T18:47:48.536Z,100.00
2018-06-11T18:50:17.333Z,100.00
2018-06-11T18:52:45.868Z,100.00
2018-06-11T18:55:18.389Z,100.00
2018-06-11T18:57:47.101Z,100.00
2018-06-11T19:00:15.692Z,100.00
2018-06-11T19:05:53.383Z,100.00
2018-06-11T19:11:03.517Z,100.00
2018-06-11T19:13:32.065Z,100.00
2018-06-11T19:16:00.681Z,100.00
2018-06-11T19:18:29.217Z,100.00
2018-06-11T19:20:57.864Z,100.00
2018-06-11T19:23:36.175Z,100.00
2018-06-11T19:26:15.387Z,100.00
2018-06-11T19:28:56.992Z,100.00
2018-06-11T19:31:43.052Z,100.00
2018-06-11T19:34:25.181Z,100.00
2018-06-11T19:37:05.797Z,100.00
2018-06-11T19:39:43.267Z,100.00
2018-06-11T19:42:23.775Z,100.00
2018-06-11T19:45:07.064Z,100.00
2018-06-11T19:47:51.388Z,100.00
2018-06-11T19:50:37.190Z,100.00
2018-06-11T19:53:19.425Z,100.00
2018-06-11T19:55:50.421Z,100.00
2018-06-11T19:58:19.022Z,100.00
2018-06-11T20:00:47.552Z,100.00
2018-06-11T20:03:16.107Z,100.00
2018-06-11T20:05:44.705Z,100.00
2018-06-11T20:08:13.277Z,100.00
2018-06-11T20:10:41.814Z,100.00
2018-06-11T20:13:10.973Z,100.00
2018-06-11T20:15:39.534Z,100.00
2018-06-11T20:18:08.302Z,100.00
2018-06-11T20:20:36.905Z,100.00
2018-06-11T20:23:05.502Z,100.00
2018-06-11T20:25:34.061Z,100.00
2018-06-11T20:28:02.697Z,100.00
2018-06-11T20:30:31.247Z,100.00
2018-06-11T20:32:59.809Z,100.00
2018-06-11T20:35:28.367Z,100.00
2018-06-11T20:37:56.911Z,100.00
2018-06-11T20:40:25.466Z,100.00
2018-06-11T20:42:54.208Z,100.00
2018-06-11T20:45:22.770Z,100.00
2018-06-11T20:47:51.293Z,100.00
2018-06-11T20:50:19.861Z,100.00
2018-06-11T20:52:48.396Z,100.00
2018-06-11T20:55:16.960Z,100.00
2018-06-11T20:57:45.516Z,100.00
2018-06-11T21:00:14.037Z,100.00
2018-06-11T21:02:49.626Z,100.00
2018-06-11T21:05:18.658Z,100.00
2018-06-11T21:07:47.237Z,100.00
2018-06-11T21:10:15.813Z,100.00
2018-06-11T21:12:48.584Z,100.00
2018-06-11T21:15:17.137Z,100.00
2018-06-11T21:17:45.722Z,100.00
2018-06-11T21:20:14.289Z,100.00
2018-06-11T21:22:42.876Z,100.00
2018-06-11T21:25:11.474Z,100.00
2018-06-11T21:27:40.054Z,100.00
2018-06-11T21:30:08.616Z,100.00
2018-06-11T21:32:37.489Z,100.00
2018-06-11T21:35:06.099Z,100.00
2018-06-11T21:37:34.725Z,100.00
2018-06-11T21:40:03.317Z,100.00
2018-06-11T21:42:31.921Z,100.00
2018-06-11T21:45:00.497Z,100.00
2018-06-11T21:47:29.101Z,100.00
2018-06-11T21:49:57.644Z,100.00
2018-06-11T21:52:26.250Z,100.00
2018-06-11T21:54:54.804Z,100.00
2018-06-11T21:57:24.441Z,100.00
2018-06-11T21:59:56.622Z,100.00
2018-06-11T22:02:25.419Z,100.00
2018-06-11T22:04:54.541Z,100.00
2018-06-11T22:07:23.136Z,100.00
2018-06-11T22:09:51.707Z,100.00
2018-06-11T22:12:20.325Z,100.00
2018-06-11T22:14:48.877Z,100.00
2018-06-11T22:17:17.473Z,100.00
2018-06-11T22:19:46.084Z,100.00
2018-06-11T22:22:14.688Z,100.00
2018-06-11T22:24:43.272Z,100.00
2018-06-11T22:27:11.853Z,100.00
2018-06-11T22:29:40.470Z,100.00
2018-06-11T22:32:09.040Z,100.00
2018-06-11T22:34:37.653Z,100.00
2018-06-11T22:37:06.217Z,100.00
2018-06-11T22:39:34.801Z,100.00
2018-06-11T22:42:03.637Z,100.00
2018-06-11T22:44:32.237Z,100.00
2018-06-11T22:47:00.833Z,100.00
2018-06-11T22:49:29.437Z,100.00
2018-06-11T22:51:58.093Z,100.00
2018-06-11T22:54:26.704Z,100.00
2018-06-11T22:56:55.507Z,100.00
2018-06-11T22:59:24.170Z,100.00
2018-06-11T23:01:52.741Z,100.00
2018-06-11T23:04:21.353Z,100.00
2018-06-11T23:06:49.965Z,100.00
2018-06-11T23:09:18.641Z,100.00
2018-06-11T23:11:47.249Z,100.00
2018-06-11T23:14:15.867Z,100.00
2018-06-11T23:16:44.476Z,100.00
2018-06-11T23:19:13.174Z,100.00
2018-06-11T23:21:41.784Z,100.00
2018-06-11T23:24:10.413Z,100.00
2018-06-11T23:26:39.008Z,100.00
2018-06-11T23:29:07.616Z,100.00
2018-06-11T23:31:36.182Z,100.00
2018-06-11T23:34:05.125Z,100.00
2018-06-11T23:36:33.701Z,100.00
2018-06-11T23:39:02.454Z,100.00
2018-06-11T23:41:31.076Z,100.00
2018-06-11T23:43:59.721Z,100.00
2018-06-11T23:46:28.377Z,100.00
2018-06-11T23:48:57.130Z,100.00
2018-06-11T23:51:25.772Z,100.00
2018-06-11T23:53:54.727Z,100.00
2018-06-11T23:56:23.573Z,100.00
2018-06-11T23:58:52.295Z,100.00
